Cima, California
Current Conditions -  °F | °C
As of 4:55 PM on Friday 24 Oct 2014 (Local Time) from KIFP Reporting Station
Clear Clear  
Wind Chill: 93°   Ceiling: Unl
Heat Index: 93°   Visibility: 10mi
Dew Point: 34°   Wind: 8mph
Humidity: 12%   Direction: 220°SW
Pressure: 29.92"   Gusts: NA
Location:  35.24°N, 115.5°W
Report Text: KIFP 242355Z AUTO 22007KT 10SM CLR 34/01 A2992 RMK AO2 PWINO
Loading
Personal Weather Stations






























Interactive Weather Map
Tropical Storm Tracking
New forecast layout! Learn more

10-Day Weather Forecast

Advertisements
Track Severe Weather on mobile